Time;durP1;ratioP1;P1;durP2;ratioP2;P2;SDS_P1;SDS_P2;PMS_P1;PMS_P2;Temp;Humidity;BMP_temperature;BMP_pressure;BME280_temperature;BME280_humidity;BME280_pressure;Samples;Min_cycle;Max_cycle;Signal;HPM_P1;HPM_P2
2022/11/15 00:02:00;;;;;;;9.70;6.40;;;;;;;5.69;nan;-23975.59;5012788;28;20202;-67
2022/11/15 00:04:25;;;;;;;16.60;8.63;;;;;;;5.72;nan;-23976.47;5012705;28;20172;-66
2022/11/15 00:06:51;;;;;;;17.40;8.53;;;;;;;5.43;nan;-23968.34;5012584;28;20287;-66
2022/11/15 00:09:16;;;;;;;14.13;8.73;;;;;;;5.52;nan;-23970.78;5012568;28;20267;-67
2022/11/15 00:11:41;;;;;;;11.97;8.10;;;;;;;5.27;nan;-23963.94;5012607;28;20179;-66
2022/11/15 00:14:07;;;;;;;14.80;8.77;;;;;;;5.21;nan;-23962.09;5012688;28;20176;-66
2022/11/15 00:16:32;;;;;;;9.63;6.57;;;;;;;5.47;nan;-23969.50;5012064;28;20180;-66
2022/11/15 00:18:57;;;;;;;12.37;7.47;;;;;;;5.10;nan;-23959.13;5012052;28;20176;-66
2022/11/15 00:21:23;;;;;;;19.43;8.80;;;;;;;5.01;nan;-23956.56;5012742;28;20318;-66
2022/11/15 00:23:48;;;;;;;13.47;6.80;;;;;;;4.96;nan;-23955.13;5012178;28;20544;-67
2022/11/15 00:26:15;;;;;;;18.87;9.00;;;;;;;5.42;nan;-23967.94;5011729;28;20238;-67
2022/11/15 00:28:41;;;;;;;14.70;8.27;;;;;;;5.06;nan;-23957.97;5012405;28;20237;-67
2022/11/15 00:31:11;;;;;;;19.50;7.67;;;;;;;5.44;nan;-23968.63;5012378;28;20210;-66
2022/11/15 00:33:36;;;;;;;17.93;8.20;;;;;;;5.38;nan;-23966.94;5012403;28;20191;-66
2022/11/15 00:36:04;;;;;;;18.03;7.10;;;;;;;5.10;nan;-23959.13;5012492;28;20271;-67
2022/11/15 00:38:38;;;;;;;16.83;7.10;;;;;;;5.27;nan;-23963.94;5011704;28;20554;-67
2022/11/15 00:41:05;;;;;;;16.50;7.40;;;;;;;5.24;nan;-23963.09;5012108;28;20204;-67
2022/11/15 00:43:31;;;;;;;25.90;8.07;;;;;;;5.53;nan;-23971.06;5012199;28;20622;-66
2022/11/15 00:45:56;;;;;;;13.23;7.50;;;;;;;5.57;nan;-23972.19;5012296;28;20207;-66
2022/11/15 00:48:22;;;;;;;20.93;8.67;;;;;;;5.28;nan;-23964.22;5011897;28;20207;-66
2022/11/15 00:50:49;;;;;;;17.33;8.50;;;;;;;5.18;nan;-23961.38;5011620;28;20612;-66
2022/11/15 00:53:14;;;;;;;13.07;6.87;;;;;;;5.26;nan;-23963.53;5011842;28;20219;-66
2022/11/15 00:55:39;;;;;;;14.43;7.00;;;;;;;5.61;nan;-23973.34;5011894;28;20200;-66
2022/11/15 00:58:05;;;;;;;14.30;7.63;;;;;;;5.38;nan;-23966.78;5012245;28;20176;-67
2022/11/15 01:00:30;;;;;;;18.13;7.63;;;;;;;5.25;nan;-23963.25;5010878;28;20211;-66
2022/11/15 01:02:56;;;;;;;14.80;7.37;;;;;;;5.65;nan;-23974.47;5011860;28;20213;-66
2022/11/15 01:05:22;;;;;;;12.40;7.00;;;;;;;5.69;nan;-23975.59;5011284;28;20258;-67
2022/11/15 01:07:51;;;;;;;14.87;6.53;;;;;;;5.90;nan;-23981.44;5011525;28;20573;-66
2022/11/15 01:10:17;;;;;;;16.50;7.87;;;;;;;5.57;nan;-23972.34;5011803;28;20616;-66
2022/11/15 01:12:42;;;;;;;13.63;7.23;;;;;;;5.90;nan;-23981.56;5011367;28;20164;-66
2022/11/15 01:15:08;;;;;;;16.20;7.30;;;;;;;5.57;nan;-23972.19;5011400;28;20273;-66
2022/11/15 01:17:33;;;;;;;16.03;7.93;;;;;;;5.67;nan;-23975.03;5011752;28;20179;-66
2022/11/15 01:19:58;;;;;;;12.77;6.73;;;;;;;5.75;nan;-23977.44;5010981;28;20272;-66
2022/11/15 01:22:24;;;;;;;14.60;7.87;;;;;;;6.04;nan;-23985.56;5011612;28;20194;-66
2022/11/15 01:24:50;;;;;;;14.50;7.73;;;;;;;5.65;nan;-23974.47;5011519;28;20179;-66
2022/11/15 01:27:16;;;;;;;14.67;7.73;;;;;;;5.78;nan;-23978.16;5011266;28;20300;-66
2022/11/15 01:29:41;;;;;;;11.90;7.03;;;;;;;5.74;nan;-23977.16;5011782;28;20179;-67
2022/11/15 01:32:07;;;;;;;19.30;7.60;;;;;;;6.03;nan;-23985.28;5010971;28;20255;-66
2022/11/15 01:34:32;;;;;;;16.00;7.27;;;;;;;5.92;nan;-23982.00;5011664;28;20239;-66
2022/11/15 01:36:58;;;;;;;13.93;7.93;;;;;;;6.33;nan;-23993.50;5011949;28;20267;-66
2022/11/15 01:39:24;;;;;;;16.20;8.00;;;;;;;6.25;nan;-23991.22;5011083;28;20491;-66
2022/11/15 01:41:49;;;;;;;14.57;6.90;;;;;;;5.99;nan;-23984.00;5011382;28;20218;-66
2022/11/15 01:44:33;;;;;;;17.93;7.00;;;;;;;6.42;nan;-23996.22;5011371;28;20168;-66
2022/11/15 01:47:06;;;;;;;16.07;7.37;;;;;;;6.03;nan;-23985.28;5010869;28;20199;-66
2022/11/15 01:49:35;;;;;;;13.40;7.03;;;;;;;6.34;nan;-23993.78;5010502;28;20226;-66
2022/11/15 01:52:04;;;;;;;10.90;7.00;;;;;;;6.15;nan;-23988.53;5011725;28;20208;-66
2022/11/15 01:54:30;;;;;;;19.13;7.13;;;;;;;6.27;nan;-23991.81;5011313;28;20172;-67
2022/11/15 01:57:01;;;;;;;13.33;6.63;;;;;;;5.98;nan;-23983.84;5011222;28;20184;-66
2022/11/15 01:59:27;;;;;;;12.37;6.73;;;;;;;6.32;nan;-23993.38;5009229;28;20558;-66
2022/11/15 02:01:53;;;;;;;15.07;7.17;;;;;;;6.30;nan;-23992.66;5012564;28;20172;-66
2022/11/15 02:04:24;;;;;;;16.60;7.37;;;;;;;6.36;nan;-23994.50;5014612;28;20279;-66
2022/11/15 02:06:50;;;;;;;12.33;7.07;;;;;;;6.22;nan;-23990.53;5014130;28;20214;-66
2022/11/15 02:09:16;;;;;;;14.80;8.07;;;;;;;6.36;nan;-23994.34;5014546;28;20356;-66
2022/11/15 02:11:43;;;;;;;15.83;6.53;;;;;;;4.92;nan;-23953.84;5014467;28;20676;-66
2022/11/15 02:14:10;;;;;;;15.00;7.60;;;;;;;6.07;nan;-23986.41;5014391;28;20172;-66
2022/11/15 02:16:53;;;;;;;11.37;6.67;;;;;;;6.45;nan;-23996.91;5014331;28;20253;-66
2022/11/15 02:19:25;;;;;;;9.90;5.73;;;;;;;6.48;nan;-23997.75;5013913;28;20175;-66
2022/11/15 02:22:00;;;;;;;11.30;6.37;;;;;;;6.14;nan;-23988.41;5014630;28;20314;-67
2022/11/15 02:25:08;;;;;;;12.23;7.37;;;;;;;6.37;nan;-23994.66;5014573;28;20172;-67
2022/11/15 02:28:21;;;;;;;11.30;7.40;;;;;;;6.31;nan;-23993.09;4984417;28;20236;-66
2022/11/15 02:31:10;;;;;;;7.40;5.67;;;;;;;6.41;nan;-23995.78;4974424;28;20185;-66
2022/11/15 02:34:13;;;;;;;12.53;5.93;;;;;;;6.41;nan;-23995.78;4975577;28;20190;-66
2022/11/15 02:36:44;;;;;;;11.13;6.57;;;;;;;6.00;nan;-23984.41;4975315;28;20177;-68
2022/11/15 02:39:39;;;;;;;9.67;6.13;;;;;;;6.00;nan;-23984.41;4975452;28;20622;-65
2022/11/15 02:43:56;;;;;;;11.63;7.77;;;;;;;6.20;nan;-23990.09;4975720;28;20314;-68
2022/11/15 02:45:01;;;;;;;12.27;5.87;;;;;;;6.13;nan;-23988.13;4974916;28;20633;-66
2022/11/15 02:47:29;;;;;;;12.73;5.63;;;;;;;6.44;nan;-23996.63;4975238;28;20189;-66
2022/11/15 02:50:00;;;;;;;13.43;6.27;;;;;;;6.53;nan;-23999.31;4975030;28;20197;-66
2022/11/15 02:52:26;;;;;;;12.83;6.57;;;;;;;6.20;nan;-23990.09;4974538;28;20213;-66
2022/11/15 02:54:56;;;;;;;11.53;6.50;;;;;;;6.39;nan;-23995.34;4975040;28;20216;-66
2022/11/15 02:57:51;;;;;;;10.03;5.93;;;;;;;6.29;nan;-23992.50;4975176;28;20166;-66
2022/11/15 03:00:19;;;;;;;10.90;5.80;;;;;;;6.28;nan;-23992.22;4975020;28;20178;-66
2022/11/15 03:02:53;;;;;;;10.10;6.20;;;;;;;6.38;nan;-23995.06;4974682;28;20170;-66
2022/11/15 03:05:45;;;;;;;10.73;6.33;;;;;;;6.00;nan;-23984.41;4974901;28;20165;-66
2022/11/15 03:08:13;;;;;;;10.90;6.13;;;;;;;6.28;nan;-23992.09;4975142;28;20204;-66
2022/11/15 03:11:00;;;;;;;8.40;5.70;;;;;;;6.24;nan;-23991.09;4974795;28;20183;-66
2022/11/15 03:13:45;;;;;;;9.63;6.20;;;;;;;6.24;nan;-23990.94;4974769;28;20233;-66
2022/11/15 03:16:27;;;;;;;10.93;5.83;;;;;;;5.95;nan;-23983.00;4993287;28;20296;-66
2022/11/15 03:19:00;;;;;;;8.30;5.80;;;;;;;5.14;nan;-23960.25;4974538;28;20177;-66
2022/11/15 03:21:30;;;;;;;11.63;5.80;;;;;;;5.86;nan;-23980.44;4975036;28;20205;-66
2022/11/15 03:24:00;;;;;;;12.50;5.63;;;;;;;6.31;nan;-23992.94;4974492;28;20185;-67
2022/11/15 03:26:27;;;;;;;11.87;6.50;;;;;;;5.92;nan;-23982.00;4987381;28;20236;-67
2022/11/15 03:29:00;;;;;;;16.40;7.63;;;;;;;6.32;nan;-23993.22;5013764;28;20584;-68
2022/11/15 03:31:47;;;;;;;10.07;5.53;;;;;;;5.95;nan;-23983.00;5013607;28;20190;-65
2022/11/15 03:34:26;;;;;;;8.07;5.60;;;;;;;6.12;nan;-23987.81;5013547;28;20176;-67
2022/11/15 03:36:52;;;;;;;11.03;6.00;;;;;;;5.89;nan;-23981.28;5013547;28;20717;-65
2022/11/15 03:39:19;;;;;;;6.30;4.57;;;;;;;6.15;nan;-23988.53;5012460;28;20258;-65
2022/11/15 03:42:05;;;;;;;15.27;6.20;;;;;;;6.34;nan;-23993.94;5013090;28;20180;-65
2022/11/15 03:44:54;;;;;;;10.23;5.97;;;;;;;6.44;nan;-23996.63;5012717;28;20192;-66
2022/11/15 03:47:38;;;;;;;10.90;5.87;;;;;;;6.45;nan;-23996.91;5013743;28;20199;-67
2022/11/15 03:50:15;;;;;;;8.83;5.27;;;;;;;6.19;nan;-23989.81;5012753;28;20259;-66
2022/11/15 03:52:41;;;;;;;10.80;6.20;;;;;;;5.97;nan;-23983.56;5013193;28;20192;-66
2022/11/15 03:55:10;;;;;;;10.90;6.37;;;;;;;6.38;nan;-23995.06;5012570;28;20168;-66
2022/11/15 03:57:36;;;;;;;12.80;6.67;;;;;;;6.01;nan;-23984.69;5012910;28;20188;-66
2022/11/15 04:00:03;;;;;;;10.07;5.90;;;;;;;5.90;nan;-23981.56;5011113;28;20182;-67
2022/11/15 04:02:29;;;;;;;11.73;6.47;;;;;;;6.02;nan;-23984.97;5012503;28;20176;-65
2022/11/15 04:04:54;;;;;;;10.57;7.07;;;;;;;5.85;nan;-23980.16;5012315;28;20175;-66
2022/11/15 04:07:19;;;;;;;8.17;5.53;;;;;;;6.17;nan;-23989.25;5012885;28;20207;-66
2022/11/15 04:10:03;;;;;;;12.83;5.53;;;;;;;6.19;nan;-23989.81;5012356;28;20184;-67
2022/11/15 04:12:33;;;;;;;12.23;5.77;;;;;;;6.19;nan;-23989.69;5013053;28;20254;-67
2022/11/15 04:15:08;;;;;;;14.10;6.07;;;;;;;6.14;nan;-23988.41;5012887;28;20179;-65
2022/11/15 04:17:48;;;;;;;8.40;4.93;;;;;;;6.07;nan;-23986.41;5012166;28;20553;-66
2022/11/15 04:25:48;;;;;;;13.90;6.80;;;;;;;6.07;nan;-23986.25;5015834;28;20668;-67
2022/11/15 04:28:14;;;;;;;8.53;4.93;;;;;;;5.17;nan;-23961.09;5017442;28;20262;-67
2022/11/15 04:30:39;;;;;;;10.17;6.00;;;;;;;6.12;nan;-23987.81;5017351;28;20275;-66
2022/11/15 04:33:05;;;;;;;15.33;6.73;;;;;;;6.09;nan;-23986.84;5015670;28;20235;-66
2022/11/15 04:35:30;;;;;;;10.50;6.00;;;;;;;6.02;nan;-23984.84;5016527;28;20238;-66
2022/11/15 04:37:57;;;;;;;11.77;6.17;;;;;;;5.89;nan;-23981.16;5016923;28;20222;-66
2022/11/15 04:40:22;;;;;;;10.33;5.57;;;;;;;6.35;nan;-23994.06;5016740;28;20191;-66
2022/11/15 04:42:47;;;;;;;13.60;6.10;;;;;;;5.86;nan;-23980.44;5015265;28;20175;-66
2022/11/15 04:45:13;;;;;;;16.03;6.53;;;;;;;6.27;nan;-23991.94;5017083;28;20318;-66
2022/11/15 04:47:38;;;;;;;10.80;6.27;;;;;;;5.69;nan;-23975.59;5016086;28;20277;-67
2022/11/15 04:50:04;;;;;;;8.33;6.33;;;;;;;5.57;nan;-23972.19;5016994;28;20183;-66
2022/11/15 04:52:30;;;;;;;12.40;6.47;;;;;;;5.57;nan;-23972.34;5015595;28;20172;-67
2022/11/15 04:54:55;;;;;;;8.63;5.37;;;;;;;5.58;nan;-23972.63;5015983;28;20615;-66
2022/11/15 04:57:21;;;;;;;14.20;5.73;;;;;;;5.45;nan;-23968.94;5016737;28;20568;-66
2022/11/15 04:59:46;;;;;;;10.67;6.07;;;;;;;5.68;nan;-23975.31;5015302;28;20175;-66
2022/11/15 05:02:12;;;;;;;8.47;5.33;;;;;;;5.78;nan;-23978.16;5017598;28;20190;-66
2022/11/15 05:04:37;;;;;;;10.07;5.23;;;;;;;5.67;nan;-23975.03;5016257;28;20182;-66
2022/11/15 05:07:05;;;;;;;10.13;6.27;;;;;;;5.65;nan;-23974.47;5016365;28;20271;-66
2022/11/15 05:09:31;;;;;;;9.13;5.70;;;;;;;5.98;nan;-23983.84;5016766;28;20180;-68
2022/11/15 05:11:56;;;;;;;10.97;5.30;;;;;;;5.55;nan;-23971.75;5015670;28;20267;-67
2022/11/15 05:14:22;;;;;;;11.00;6.30;;;;;;;5.91;nan;-23981.72;5016051;28;20188;-66
2022/11/15 05:16:47;;;;;;;13.83;6.10;;;;;;;5.95;nan;-23983.00;5015331;28;20187;-67
2022/11/15 05:19:13;;;;;;;10.10;5.57;;;;;;;5.68;nan;-23975.47;5019048;28;20198;-66
2022/11/15 05:21:38;;;;;;;12.93;6.47;;;;;;;5.64;nan;-23974.31;5014547;28;20650;-67
2022/11/15 05:24:04;;;;;;;9.37;5.00;;;;;;;6.12;nan;-23987.81;5018187;28;20187;-68
2022/11/15 05:26:30;;;;;;;6.93;5.40;;;;;;;5.75;nan;-23977.44;5019421;28;20227;-67
2022/11/15 05:28:57;;;;;;;11.23;6.77;;;;;;;6.00;nan;-23984.41;5026629;28;20202;-66
2022/11/15 05:31:23;;;;;;;11.17;6.23;;;;;;;5.62;nan;-23973.63;5010815;28;20198;-65
2022/11/15 05:33:53;;;;;;;9.30;5.80;;;;;;;5.74;nan;-23977.03;5010095;28;20179;-67
2022/11/15 05:36:37;;;;;;;9.03;4.97;;;;;;;6.06;nan;-23985.97;5011619;28;20184;-66
2022/11/15 05:39:05;;;;;;;7.63;4.47;;;;;;;5.89;nan;-23981.28;5014713;28;20193;-66
2022/11/15 05:41:37;;;;;;;16.27;6.20;;;;;;;6.13;nan;-23987.97;5015023;28;20176;-66
2022/11/15 05:44:07;;;;;;;10.40;6.07;;;;;;;6.25;nan;-23991.22;5015046;28;20260;-66
2022/11/15 05:46:33;;;;;;;8.73;5.30;;;;;;;6.02;nan;-23984.84;5015319;28;20532;-67
2022/11/15 05:48:59;;;;;;;11.17;5.73;;;;;;;6.36;nan;-23994.34;5014138;28;20199;-68
2022/11/15 05:51:28;;;;;;;8.33;5.10;;;;;;;6.17;nan;-23989.25;5014519;28;20596;-66
2022/11/15 05:53:56;;;;;;;7.63;5.47;;;;;;;6.54;nan;-23999.63;5014879;28;20203;-66
2022/11/15 05:56:22;;;;;;;9.53;4.73;;;;;;;6.27;nan;-23991.81;5014435;28;20172;-67
2022/11/15 05:58:47;;;;;;;14.73;6.43;;;;;;;6.37;nan;-23994.78;5014107;28;20230;-68
2022/11/15 06:01:13;;;;;;;9.07;5.73;;;;;;;6.44;nan;-23996.78;5014699;28;20624;-68
2022/11/15 06:03:38;;;;;;;15.07;6.23;;;;;;;6.48;nan;-23997.75;5014584;28;20175;-68
2022/11/15 06:06:04;;;;;;;12.20;6.00;;;;;;;6.63;nan;-24002.16;5014773;28;20252;-67
2022/11/15 06:08:29;;;;;;;9.63;5.60;;;;;;;6.62;nan;-24001.75;5012831;28;20180;-68
2022/11/15 06:10:55;;;;;;;13.77;7.33;;;;;;;6.68;nan;-24003.44;5014474;28;20640;-67
2022/11/15 06:13:20;;;;;;;10.03;6.17;;;;;;;7.07;nan;-24014.50;5014403;28;20183;-67
2022/11/15 06:15:46;;;;;;;8.93;5.53;;;;;;;7.01;nan;-24012.66;5014322;28;20175;-67
2022/11/15 06:18:11;;;;;;;8.87;5.07;;;;;;;7.32;nan;-24021.47;5014158;28;20638;-67
2022/11/15 06:20:36;;;;;;;8.77;5.00;;;;;;;7.04;nan;-24013.66;5020908;28;20179;-69
2022/11/15 06:23:04;;;;;;;13.27;6.13;;;;;;;7.50;nan;-24026.56;5021426;28;20203;-67
2022/11/15 06:25:31;;;;;;;9.20;5.37;;;;;;;7.49;nan;-24026.28;5030663;28;20187;-67
2022/11/15 06:27:57;;;;;;;9.17;5.53;;;;;;;7.28;nan;-24020.19;5013892;28;20350;-68
2022/11/15 06:30:24;;;;;;;10.57;6.73;;;;;;;7.77;nan;-24034.06;5020409;28;20192;-68
2022/11/15 06:32:50;;;;;;;12.03;5.50;;;;;;;7.91;nan;-24038.03;5033728;28;20183;-68
2022/11/15 06:35:16;;;;;;;9.50;5.03;;;;;;;8.08;nan;-24042.72;5034186;28;20556;-68
2022/11/15 06:37:42;;;;;;;9.40;5.13;;;;;;;7.90;nan;-24037.63;5033587;28;20558;-67
2022/11/15 06:40:09;;;;;;;11.90;4.93;;;;;;;8.37;nan;-24050.78;5033884;28;20238;-67
2022/11/15 06:42:36;;;;;;;8.93;5.53;;;;;;;8.51;nan;-24054.59;5033496;28;20587;-67
2022/11/15 06:45:02;;;;;;;9.73;5.03;;;;;;;8.43;nan;-24052.47;5034054;28;20221;-68
2022/11/15 06:47:28;;;;;;;12.68;5.90;;;;;;;8.31;nan;-24049.09;5033182;28;20209;-69
2022/11/15 06:49:53;;;;;;;16.70;5.90;;;;;;;8.63;nan;-24058.00;5033652;28;20180;-68
2022/11/15 06:52:19;;;;;;;9.77;5.50;;;;;;;8.68;nan;-24059.56;5033767;28;20176;-67
2022/11/15 06:54:45;;;;;;;8.98;5.25;;;;;;;8.75;nan;-24061.53;5033784;28;20173;-67
2022/11/15 06:57:11;;;;;;;9.90;4.97;;;;;;;8.31;nan;-24049.22;5033876;28;20230;-68
2022/11/15 06:59:36;;;;;;;9.30;5.20;;;;;;;7.57;nan;-24028.25;5033098;28;20184;-68
2022/11/15 07:02:03;;;;;;;9.18;5.50;;;;;;;8.66;nan;-24059.00;5033476;28;20584;-68
2022/11/15 07:04:28;;;;;;;14.73;5.47;;;;;;;8.86;nan;-24064.66;5033153;28;20205;-67
2022/11/15 07:06:53;;;;;;;10.13;5.40;;;;;;;8.58;nan;-24056.59;5033632;28;20203;-67
2022/11/15 07:09:19;;;;;;;9.88;5.65;;;;;;;8.84;nan;-24064.09;5022778;28;20184;-67
2022/11/15 07:11:44;;;;;;;11.20;5.32;;;;;;;8.47;nan;-24053.47;5031487;28;20182;-68
2022/11/15 07:14:10;;;;;;;8.98;5.07;;;;;;;8.86;nan;-24064.50;5032497;28;20225;-68
2022/11/15 07:16:36;;;;;;;12.10;6.00;;;;;;;8.77;nan;-24062.09;5033489;28;20697;-69
2022/11/15 07:19:02;;;;;;;8.98;5.53;;;;;;;8.81;nan;-24063.09;5033367;28;20540;-67
2022/11/15 07:21:28;;;;;;;12.85;5.18;;;;;;;8.72;nan;-24060.56;5033736;28;20174;-68
2022/11/15 07:23:53;;;;;;;9.13;5.50;;;;;;;9.18;nan;-24073.56;5033500;28;20174;-68
2022/11/15 07:26:18;;;;;;;9.25;5.80;;;;;;;9.19;nan;-24073.84;5033469;28;20223;-67
2022/11/15 07:28:44;;;;;;;9.93;5.43;;;;;;;8.39;nan;-24051.34;5033191;28;20241;-67
2022/11/15 07:31:09;;;;;;;10.30;5.80;;;;;;;9.29;nan;-24076.66;5033608;28;20171;-68
2022/11/15 07:33:35;;;;;;;14.55;6.00;;;;;;;9.19;nan;-24073.84;5033649;28;20258;-68
2022/11/15 07:36:02;;;;;;;12.68;6.47;;;;;;;9.57;nan;-24084.44;5033733;28;20183;-67
2022/11/15 07:38:28;;;;;;;9.07;5.18;;;;;;;9.51;nan;-24082.75;5033063;28;20176;-67
2022/11/15 07:40:59;;;;;;;14.70;6.40;;;;;;;9.67;nan;-24087.28;5033286;28;20266;-67
2022/11/15 07:43:27;;;;;;;10.95;6.10;;;;;;;9.11;nan;-24071.59;5032479;28;20171;-68
2022/11/15 07:45:53;;;;;;;14.98;5.72;;;;;;;9.46;nan;-24081.19;5033008;28;20241;-69
2022/11/15 07:48:18;;;;;;;10.35;5.90;;;;;;;9.63;nan;-24086.00;5032583;28;20670;-69
2022/11/15 07:50:44;;;;;;;12.02;6.55;;;;;;;10.15;nan;-24100.53;5020930;28;20654;-67
2022/11/15 07:53:10;;;;;;;9.38;5.75;;;;;;;10.18;nan;-24101.41;5027409;28;20176;-68
2022/11/15 07:55:36;;;;;;;12.68;4.93;;;;;;;10.02;nan;-24097.03;5012525;28;20195;-67
2022/11/15 07:58:04;;;;;;;9.88;4.15;;;;;;;10.45;nan;-24108.88;5022055;28;20201;-68
2022/11/15 08:00:29;;;;;;;8.07;4.57;;;;;;;10.47;nan;-24109.59;5031756;28;20171;-67
2022/11/15 08:03:06;;;;;;;9.23;5.88;;;;;;;10.54;nan;-24111.56;5032099;28;20201;-68
2022/11/15 08:05:32;;;;;;;15.13;6.32;;;;;;;10.86;nan;-24120.44;5032435;28;20186;-68
2022/11/15 08:07:58;;;;;;;15.30;6.22;;;;;;;10.93;nan;-24122.41;5031984;28;20295;-68
2022/11/15 08:10:24;;;;;;;10.20;5.25;;;;;;;10.84;nan;-24119.88;5032256;28;20229;-68
2022/11/15 08:13:00;;;;;;;13.32;6.35;;;;;;;11.06;nan;-24126.09;5031423;28;20171;-68
2022/11/15 08:15:26;;;;;;;8.70;4.95;;;;;;;11.06;nan;-24126.09;5032436;28;20276;-68
2022/11/15 08:18:01;;;;;;;12.13;5.70;;;;;;;11.19;nan;-24129.59;5032652;28;20171;-67
2022/11/15 08:20:31;;;;;;;6.53;4.25;;;;;;;10.93;nan;-24122.41;5032552;28;20198;-67
2022/11/15 08:23:00;;;;;;;11.40;4.72;;;;;;;11.05;nan;-24125.66;5032229;28;20202;-68
2022/11/15 08:25:27;;;;;;;10.57;5.45;;;;;;;11.46;nan;-24137.22;5032547;28;20174;-68
2022/11/15 08:27:54;;;;;;;9.05;5.47;;;;;;;11.43;nan;-24136.22;5032134;28;20227;-68
2022/11/15 08:30:20;;;;;;;11.57;5.47;;;;;;;11.20;nan;-24129.88;5031956;28;20178;-68
2022/11/15 08:32:45;;;;;;;9.35;5.20;;;;;;;11.46;nan;-24137.22;5032502;28;20171;-68
2022/11/15 08:35:11;;;;;;;11.68;5.53;;;;;;;9.66;nan;-24086.84;5032323;28;20642;-67
2022/11/15 08:37:36;;;;;;;12.18;5.75;;;;;;;11.63;nan;-24141.88;5031484;28;20186;-68
2022/11/15 08:40:03;;;;;;;11.32;5.25;;;;;;;11.58;nan;-24140.31;5032310;28;20182;-68
2022/11/15 08:42:28;;;;;;;14.07;5.75;;;;;;;11.65;nan;-24142.28;5031427;28;20205;-68
2022/11/15 08:44:53;;;;;;;8.57;5.40;;;;;;;11.58;nan;-24140.47;5031549;28;20638;-68
2022/11/15 08:47:19;;;;;;;10.48;5.15;;;;;;;11.75;nan;-24145.25;5031712;28;20195;-68
2022/11/15 08:49:44;;;;;;;10.00;5.15;;;;;;;11.80;nan;-24146.66;5031662;28;20163;-68
2022/11/15 08:52:09;;;;;;;11.05;4.60;;;;;;;11.62;nan;-24141.44;5029983;28;20210;-68
2022/11/15 08:54:35;;;;;;;10.75;5.53;;;;;;;11.33;nan;-24133.56;5031583;28;20164;-68
2022/11/15 08:57:00;;;;;;;10.93;5.47;;;;;;;11.60;nan;-24141.03;5031567;28;20607;-68
2022/11/15 08:59:26;;;;;;;10.98;5.53;;;;;;;11.79;nan;-24146.25;5029826;28;20183;-68
2022/11/15 09:01:51;;;;;;;9.43;4.80;;;;;;;12.17;nan;-24156.94;5031552;28;20178;-67
2022/11/15 09:04:16;;;;;;;13.65;5.78;;;;;;;12.11;nan;-24155.25;5031722;28;20262;-67
2022/11/15 09:06:42;;;;;;;12.70;6.30;;;;;;;12.23;nan;-24158.63;5031716;28;20194;-67
2022/11/15 09:09:07;;;;;;;11.50;6.70;;;;;;;12.35;nan;-24162.00;5031968;28;20183;-67
2022/11/15 09:11:33;;;;;;;10.45;5.57;;;;;;;12.91;nan;-24177.34;5031469;28;20201;-67
2022/11/15 09:13:58;;;;;;;11.50;5.85;;;;;;;12.65;nan;-24170.31;5031683;28;20167;-67
2022/11/15 09:16:23;;;;;;;15.82;6.28;;;;;;;12.99;nan;-24179.72;5031508;28;20199;-67
2022/11/15 09:18:49;;;;;;;12.88;5.57;;;;;;;12.56;nan;-24167.78;5030870;28;20175;-67
2022/11/15 09:21:14;;;;;;;11.43;6.00;;;;;;;12.64;nan;-24170.03;5031280;28;20621;-67
2022/11/15 09:23:40;;;;;;;15.45;5.80;;;;;;;12.80;nan;-24174.38;5031035;28;20609;-67
2022/11/15 09:26:05;;;;;;;11.48;6.13;;;;;;;12.34;nan;-24161.72;5031535;28;20292;-67
2022/11/15 09:28:32;;;;;;;11.60;5.82;;;;;;;12.17;nan;-24156.78;5031458;28;20266;-67
2022/11/15 09:31:00;;;;;;;13.20;6.68;;;;;;;11.74;nan;-24144.84;5031802;28;20538;-67
2022/11/15 09:33:26;;;;;;;14.80;5.95;;;;;;;12.10;nan;-24154.81;5031723;28;20545;-67
2022/11/15 09:35:51;;;;;;;14.18;6.38;;;;;;;11.99;nan;-24151.72;5031402;28;20171;-67
2022/11/15 09:38:18;;;;;;;14.95;6.40;;;;;;;11.53;nan;-24139.19;5031568;28;20167;-68
2022/11/15 09:40:43;;;;;;;16.15;6.88;;;;;;;12.81;nan;-24174.81;5031580;28;20623;-68
2022/11/15 09:43:08;;;;;;;12.68;6.10;;;;;;;12.84;nan;-24175.66;5031270;28;20170;-67
2022/11/15 09:45:48;;;;;;;14.05;6.38;;;;;;;13.11;nan;-24183.09;5031115;28;20182;-68
2022/11/15 09:48:19;;;;;;;14.65;6.65;;;;;;;13.02;nan;-24180.44;5031715;28;20264;-68
2022/11/15 09:50:53;;;;;;;13.40;7.18;;;;;;;12.90;nan;-24177.19;5031170;28;20186;-70
2022/11/15 09:53:29;;;;;;;17.48;7.22;;;;;;;12.71;nan;-24172.00;5031082;28;20239;-68
2022/11/15 09:56:05;;;;;;;8.50;4.70;;;;;;;12.65;nan;-24170.16;5031321;28;20159;-67
2022/11/15 09:58:47;;;;;;;12.65;6.80;;;;;;;12.59;nan;-24168.47;5031008;28;20175;-68
2022/11/15 10:01:51;;;;;;;12.90;6.47;;;;;;;12.98;nan;-24179.31;5031255;28;20221;-68
2022/11/15 10:04:16;;;;;;;9.48;5.75;;;;;;;12.62;nan;-24169.31;5029925;28;20282;-68
2022/11/15 10:07:06;;;;;;;13.88;6.35;;;;;;;12.69;nan;-24171.28;5031250;28;20726;-67
2022/11/15 10:10:04;;;;;;;13.10;6.50;;;;;;;12.80;nan;-24174.38;5031157;28;20270;-67
2022/11/15 10:12:31;;;;;;;12.68;5.93;;;;;;;12.72;nan;-24172.13;5018323;28;20210;-68
2022/11/15 10:15:12;;;;;;;13.32;6.75;;;;;;;12.77;nan;-24173.53;5010871;28;20555;-68
2022/11/15 10:17:38;;;;;;;13.90;6.65;;;;;;;13.29;nan;-24188.03;5011026;28;20204;-68
2022/11/15 10:20:09;;;;;;;12.05;6.50;;;;;;;13.19;nan;-24185.34;5011051;28;20215;-69
2022/11/15 10:22:38;;;;;;;18.58;6.75;;;;;;;13.17;nan;-24184.66;5012348;28;20620;-68
2022/11/15 10:25:16;;;;;;;14.85;7.22;;;;;;;13.57;nan;-24195.88;5014471;28;20211;-68
2022/11/15 10:27:42;;;;;;;13.93;6.80;;;;;;;13.73;nan;-24200.09;5014187;28;20230;-69
2022/11/15 10:30:14;;;;;;;16.25;6.88;;;;;;;14.11;nan;-24210.91;5013834;28;20215;-68
2022/11/15 10:32:42;;;;;;;18.55;7.50;;;;;;;13.97;nan;-24206.84;5013864;28;20180;-68
2022/11/15 10:35:37;;;;;;;14.35;6.10;;;;;;;14.13;nan;-24211.47;5013694;28;20200;-68
2022/11/15 10:38:08;;;;;;;16.95;6.63;;;;;;;14.34;nan;-24217.06;5012940;28;20640;-68
2022/11/15 10:40:34;;;;;;;12.13;6.07;;;;;;;13.87;nan;-24204.03;5013720;28;20230;-67
2022/11/15 10:43:09;;;;;;;12.00;6.22;;;;;;;14.05;nan;-24209.22;5012958;28;20177;-67
2022/11/15 10:45:35;;;;;;;12.40;6.30;;;;;;;13.86;nan;-24203.88;5012933;28;20246;-67
2022/11/15 10:48:12;;;;;;;14.13;7.03;;;;;;;14.26;nan;-24214.84;5013478;28;20683;-68
2022/11/15 10:50:40;;;;;;;15.10;6.68;;;;;;;13.59;nan;-24196.44;5013672;28;20259;-68
2022/11/15 10:53:16;;;;;;;17.27;7.63;;;;;;;13.90;nan;-24205.00;5013503;28;20616;-68
2022/11/15 10:55:47;;;;;;;17.30;7.80;;;;;;;13.77;nan;-24201.38;5017490;28;20206;-68
2022/11/15 10:58:29;;;;;;;19.25;8.32;;;;;;;12.45;nan;-24164.69;5023879;28;20234;-68
2022/11/15 11:00:54;;;;;;;12.95;6.60;;;;;;;13.95;nan;-24206.41;5023858;28;20175;-68
2022/11/15 11:03:33;;;;;;;14.15;6.38;;;;;;;14.41;nan;-24219.03;5013724;28;20635;-68
2022/11/15 11:06:14;;;;;;;14.15;8.32;;;;;;;14.41;nan;-24219.03;5031117;28;20552;-68
2022/11/15 11:08:40;;;;;;;12.52;5.93;;;;;;;15.19;nan;-24240.78;5033920;28;20185;-68
2022/11/15 11:11:07;;;;;;;12.38;6.32;;;;;;;15.09;nan;-24237.97;5033781;28;20175;-67
2022/11/15 11:13:38;;;;;;;14.23;7.05;;;;;;;15.71;nan;-24255.06;5033957;28;20175;-68
2022/11/15 11:16:34;;;;;;;12.95;6.93;;;;;;;15.81;nan;-24258.00;5033123;28;20626;-68
2022/11/15 11:19:06;;;;;;;14.15;7.25;;;;;;;16.00;nan;-24263.03;5033131;28;20168;-67
2022/11/15 11:21:31;;;;;;;13.88;6.80;;;;;;;15.83;nan;-24258.41;5033120;28;20202;-67
2022/11/15 11:24:14;;;;;;;14.00;6.38;;;;;;;15.67;nan;-24254.06;5032876;28;20619;-69
2022/11/15 11:26:42;;;;;;;13.18;6.85;;;;;;;14.81;nan;-24230.13;5033406;28;20257;-69
2022/11/15 11:29:28;;;;;;;16.45;6.38;;;;;;;15.23;nan;-24241.88;5033060;28;20175;-68
2022/11/15 11:32:19;;;;;;;13.73;6.45;;;;;;;14.92;nan;-24233.34;5032936;28;20267;-67
2022/11/15 11:35:02;;;;;;;16.40;6.65;;;;;;;14.18;nan;-24212.59;5031895;28;20308;-67
2022/11/15 11:37:45;;;;;;;13.02;6.90;;;;;;;13.59;nan;-24196.31;5033593;28;20175;-68
2022/11/15 11:40:20;;;;;;;16.50;8.18;;;;;;;14.08;nan;-24209.91;5032861;28;20171;-69
2022/11/15 11:42:48;;;;;;;11.23;6.05;;;;;;;14.45;nan;-24220.16;5032706;28;20217;-67
2022/11/15 11:45:33;;;;;;;13.13;7.13;;;;;;;14.59;nan;-24224.09;5032063;28;20205;-68
2022/11/15 11:48:07;;;;;;;12.85;7.05;;;;;;;14.76;nan;-24228.84;5033148;28;20202;-68
2022/11/15 11:50:36;;;;;;;12.40;6.97;;;;;;;14.69;nan;-24226.91;5032951;28;20164;-67
2022/11/15 11:53:04;;;;;;;16.15;6.80;;;;;;;14.90;nan;-24232.78;5032713;28;20656;-68
2022/11/15 11:55:39;;;;;;;14.50;7.25;;;;;;;14.61;nan;-24224.50;5032699;28;20183;-67
2022/11/15 11:58:38;;;;;;;16.20;6.85;;;;;;;14.78;nan;-24229.41;5033185;28;20660;-68
2022/11/15 12:01:17;;;;;;;13.13;6.95;;;;;;;15.23;nan;-24241.88;5032953;28;20167;-68